Fawnskin, California
Current Conditions -  °F | °C
As of 7:55 AM on Thursday 27 Nov 2014 (Local Time) from KL35 Reporting Station
Clear Clear  
Wind Chill: 32°   Ceiling: Unl
Heat Index: 32°   Visibility: 10mi
Dew Point: 12°   Wind: 0mph
Humidity: 44%   Direction: NA
Pressure: 30.45"   Gusts: NA
Location:  34.27°N, 116.94°W
Report Text: KL35 271555Z AUTO 00000KT 10SM CLR 00/M11 A3045 RMK AO2
Loading
Personal Weather Stations






























Interactive Weather Map New forecast layout! Learn more

10-Day Weather Forecast

Advertisements
Track Severe Weather on mobile